Time;durP1;ratioP1;P1;durP2;ratioP2;P2;SDS_P1;SDS_P2;PMS_P1;PMS_P2;Temp;Humidity;BMP_temperature;BMP_pressure;BME280_temperature;BME280_humidity;BME280_pressure;Samples;Min_cycle;Max_cycle;Signal;HPM_P1;HPM_P2
2022/09/13 00:00:56;;;;;;;11.98;9.48;;;;;;;16.02;100.00;101003.31;6128119;23;20087;-81
2022/09/13 00:03:22;;;;;;;13.13;10.32;;;;;;;16.06;100.00;101004.72;6127439;23;20105;-80
2022/09/13 00:05:47;;;;;;;13.85;10.68;;;;;;;15.77;100.00;100962.88;6101840;23;20435;-82
2022/09/13 00:08:13;;;;;;;16.17;11.35;;;;;;;15.69;100.00;100947.03;6127503;23;19998;-81
2022/09/13 00:10:40;;;;;;;15.23;10.57;;;;;;;15.75;100.00;100961.34;6127631;23;20376;-82
2022/09/13 00:13:07;;;;;;;15.52;11.63;;;;;;;16.04;100.00;101008.41;6127905;23;20017;-81
2022/09/13 00:15:33;;;;;;;16.65;12.43;;;;;;;16.03;100.00;101001.56;6127629;23;20065;-81
2022/09/13 00:17:58;;;;;;;13.95;10.77;;;;;;;16.00;100.00;100994.81;6127761;23;20041;-81
2022/09/13 00:20:24;;;;;;;16.98;12.15;;;;;;;15.94;100.00;100982.31;6127624;23;20081;-81
2022/09/13 00:22:50;;;;;;;15.60;12.30;;;;;;;16.02;100.00;100995.50;6127210;23;20010;-81
2022/09/13 00:25:15;;;;;;;15.07;11.70;;;;;;;16.02;100.00;100992.06;6127610;23;20010;-81
2022/09/13 00:27:41;;;;;;;15.48;11.60;;;;;;;16.02;100.00;100992.88;6127804;23;20033;-81
2022/09/13 00:30:07;;;;;;;16.25;12.07;;;;;;;16.02;100.00;100995.50;6127314;23;20086;-81
2022/09/13 00:32:34;;;;;;;14.68;11.02;;;;;;;16.00;100.00;100984.38;6127314;23;20380;-82
2022/09/13 00:35:02;;;;;;;17.10;12.57;;;;;;;15.90;100.00;100970.47;6127182;23;20016;-81
2022/09/13 00:37:27;;;;;;;17.67;12.15;;;;;;;16.00;100.00;100975.75;6127502;23;20009;-81
2022/09/13 00:39:52;;;;;;;17.38;11.93;;;;;;;15.88;100.00;100954.16;6127349;23;20017;-81
2022/09/13 00:42:27;;;;;;;18.05;12.23;;;;;;;16.01;100.00;100966.97;6127644;23;20014;-81
2022/09/13 00:45:01;;;;;;;15.63;12.07;;;;;;;15.90;100.00;100954.84;6127081;23;20006;-82
2022/09/13 00:47:29;;;;;;;17.00;11.73;;;;;;;15.98;100.00;100967.25;6126861;23;20006;-81
2022/09/13 00:50:01;;;;;;;16.13;12.20;;;;;;;15.87;100.00;100951.69;6127101;23;20424;-81
2022/09/13 00:52:30;;;;;;;17.25;12.48;;;;;;;15.73;100.00;100926.78;6127199;23;20072;-83
2022/09/13 00:55:01;;;;;;;18.13;12.48;;;;;;;16.01;100.00;100962.59;6127257;23;20448;-80
2022/09/13 00:57:28;;;;;;;16.77;11.93;;;;;;;15.94;100.00;100955.44;6127513;23;20006;-82
2022/09/13 01:00:08;;;;;;;16.20;12.07;;;;;;;15.93;100.00;100949.41;6127583;23;20006;-82
2022/09/13 01:02:34;;;;;;;15.18;11.18;;;;;;;15.85;100.00;100938.78;6100875;23;20309;-81
2022/09/13 01:04:59;;;;;;;17.67;12.38;;;;;;;15.91;100.00;100960.88;6127124;23;20009;-82
2022/09/13 01:07:25;;;;;;;18.15;11.80;;;;;;;15.92;100.00;100957.31;6127427;23;20002;-81
2022/09/13 01:09:51;;;;;;;15.13;11.57;;;;;;;15.78;100.00;100935.88;6127351;23;20005;-82
2022/09/13 01:12:30;;;;;;;17.05;11.52;;;;;;;15.75;100.00;100932.69;6127049;23;20507;-81
2022/09/13 01:14:58;;;;;;;16.65;12.05;;;;;;;15.91;100.00;100958.28;6127366;23;20061;-81
2022/09/13 01:17:27;;;;;;;15.63;11.57;;;;;;;15.90;100.00;100960.06;6126890;23;20061;-81
2022/09/13 01:19:52;;;;;;;14.35;10.88;;;;;;;15.68;100.00;100913.31;6127111;23;20014;-81
2022/09/13 01:22:24;;;;;;;15.63;11.40;;;;;;;15.91;100.00;100960.88;6101471;23;20010;-81
2022/09/13 01:24:52;;;;;;;;;;;;;;;15.98;100.00;100952.44;6101210;23;20017;-80
2022/09/13 01:27:45;;;;;;;16.15;11.40;;;;;;;15.96;100.00;100963.94;6127270;23;19909;-82
2022/09/13 01:30:17;;;;;;;15.68;11.27;;;;;;;15.82;100.00;100946.03;6127658;23;20052;-81
2022/09/13 01:33:04;;;;;;;13.80;10.68;;;;;;;15.92;100.00;100965.13;6126817;23;20008;-81
2022/09/13 01:35:57;;;;;;;13.63;10.27;;;;;;;15.96;100.00;100963.94;6126975;23;20006;-80
2022/09/13 01:38:41;;;;;;;20.02;10.82;;;;;;;15.94;100.00;100956.25;6126747;23;20006;-80
2022/09/13 01:41:30;;;;;;;14.73;11.00;;;;;;;15.85;100.00;100937.97;6127135;23;20029;-81
2022/09/13 01:44:08;;;;;;;16.73;10.88;;;;;;;15.93;100.00;100953.78;6126985;23;20077;-80
2022/09/13 01:47:10;;;;;;;15.20;11.50;;;;;;;15.94;100.00;100953.66;6126745;23;20343;-81
2022/09/13 01:49:46;;;;;;;15.85;10.95;;;;;;;15.89;100.00;100944.56;6126607;23;20010;-81
2022/09/13 01:52:24;;;;;;;13.13;10.45;;;;;;;15.90;100.00;100946.22;6126915;23;20009;-80
2022/09/13 01:54:52;;;;;;;16.38;11.15;;;;;;;15.89;100.00;100948.00;6100249;23;20013;-80
2022/09/13 01:57:29;;;;;;;14.52;11.32;;;;;;;15.93;100.00;100946.81;6126760;23;20002;-80
2022/09/13 02:00:03;;;;;;;14.48;10.60;;;;;;;15.72;100.00;100920.75;6126754;23;20002;-81
2022/09/13 02:02:42;;;;;;;17.35;11.98;;;;;;;15.60;100.00;100890.53;6126681;23;20037;-80
2022/09/13 02:05:21;;;;;;;14.60;10.85;;;;;;;15.69;100.00;100910.59;6126365;23;20009;-80
2022/09/13 02:07:59;;;;;;;16.67;11.65;;;;;;;15.80;100.00;100927.91;6126792;23;20006;-81
2022/09/13 02:10:30;;;;;;;17.95;11.30;;;;;;;15.91;100.00;100933.06;6126947;23;20361;-81
2022/09/13 02:12:58;;;;;;;15.13;11.23;;;;;;;15.78;100.00;100911.59;6126728;23;20076;-81
2022/09/13 02:15:30;;;;;;;18.27;11.55;;;;;;;15.63;100.00;100885.09;6126595;23;20006;-81
2022/09/13 02:18:09;;;;;;;15.35;11.02;;;;;;;15.86;100.00;100937.84;6126885;23;20141;-81
2022/09/13 02:20:40;;;;;;;17.15;11.98;;;;;;;15.89;100.00;100941.97;6126160;23;20002;-80
2022/09/13 02:23:12;;;;;;;19.42;12.02;;;;;;;15.82;100.00;100935.59;6101508;23;20014;-81
2022/09/13 02:25:39;;;;;;;15.88;11.38;;;;;;;15.89;100.00;100947.16;6126637;23;20006;-80
2022/09/13 02:28:10;;;;;;;15.10;11.07;;;;;;;15.89;100.00;100949.78;6126727;23;20053;-80
2022/09/13 02:30:40;;;;;;;15.52;12.40;;;;;;;15.90;100.00;100946.22;6126477;23;20014;-80
2022/09/13 02:33:20;;;;;;;16.48;12.43;;;;;;;15.74;100.00;100918.88;6126258;23;20421;-81
2022/09/13 02:35:57;;;;;;;14.85;11.05;;;;;;;15.84;100.00;100937.16;6126590;23;20006;-80
2022/09/13 02:38:31;;;;;;;15.63;11.45;;;;;;;15.89;100.00;100941.97;6126241;23;20002;-81
2022/09/13 02:41:05;;;;;;;15.65;10.88;;;;;;;15.73;100.00;100919.81;6126637;23;20009;-81
2022/09/13 02:43:37;;;;;;;15.77;11.43;;;;;;;15.88;100.00;100940.31;6126459;23;20302;-80
2022/09/13 02:46:11;;;;;;;15.10;11.98;;;;;;;15.88;100.00;100943.75;6126303;23;20409;-80
2022/09/13 02:48:57;;;;;;;14.95;11.45;;;;;;;15.88;100.00;100956.75;6126736;23;20006;-80
2022/09/13 02:51:32;;;;;;;14.35;11.68;;;;;;;15.89;100.00;100952.38;6126526;23;20006;-80
2022/09/13 02:54:29;;;;;;;14.32;10.75;;;;;;;15.90;100.00;100956.63;6126308;23;20002;-81
2022/09/13 02:57:37;;;;;;;17.85;11.68;;;;;;;15.92;100.00;100957.31;6126299;23;20006;-81
2022/09/13 03:00:03;;;;;;;14.57;10.65;;;;;;;15.69;100.00;100928.00;6108356;23;20089;-81
2022/09/13 03:02:32;;;;;;;15.63;11.43;;;;;;;15.74;100.00;100942.28;6126058;23;20096;-80
2022/09/13 03:05:01;;;;;;;16.05;12.70;;;;;;;15.86;100.00;100971.69;6126144;23;20006;-80
2022/09/13 03:07:27;;;;;;;17.65;12.25;;;;;;;15.88;100.00;100969.78;6126614;23;20325;-83
2022/09/13 03:10:03;;;;;;;16.88;12.43;;;;;;;15.91;100.00;100972.13;6127453;23;20075;-80
2022/09/13 03:12:28;;;;;;;19.02;12.93;;;;;;;15.93;100.00;100965.03;6128489;23;20034;-82
2022/09/13 03:15:08;;;;;;;20.17;13.35;;;;;;;15.91;100.00;100961.72;6128256;23;20057;-79
2022/09/13 03:17:52;;;;;;;18.55;13.38;;;;;;;15.95;100.00;100963.13;6128335;23;20006;-80
2022/09/13 03:20:59;;;;;;;18.92;13.10;;;;;;;15.91;100.00;100958.28;6127947;23;20305;-81
2022/09/13 03:23:48;;;;;;;16.95;13.57;;;;;;;15.85;100.00;100949.22;6127669;23;20044;-79
2022/09/13 03:26:16;;;;;;;19.15;14.57;;;;;;;15.88;100.00;100961.97;6128502;23;20014;-80
2022/09/13 03:28:53;;;;;;;17.58;14.23;;;;;;;15.64;100.00;100923.19;6128484;23;20030;-80
2022/09/13 03:31:18;;;;;;;18.30;13.50;;;;;;;15.85;100.00;100957.03;6127982;23;20029;-80
2022/09/13 03:33:56;;;;;;;21.52;14.48;;;;;;;15.86;100.00;100963.06;6128483;23;20014;-80
2022/09/13 03:36:37;;;;;;;19.00;13.80;;;;;;;15.79;100.00;100947.09;6127606;23;20009;-79
2022/09/13 03:39:26;;;;;;;22.65;15.18;;;;;;;15.84;100.00;100949.34;6127905;23;20010;-81
2022/09/13 03:41:58;;;;;;;19.02;14.70;;;;;;;15.80;100.00;100942.72;6128320;23;20006;-80
2022/09/13 03:44:26;;;;;;;18.17;14.02;;;;;;;15.68;100.00;100927.16;6128038;23;20006;-80
2022/09/13 03:46:56;;;;;;;19.25;14.50;;;;;;;15.71;100.00;100937.31;6128252;23;20010;-80
2022/09/13 03:49:25;;;;;;;19.58;14.65;;;;;;;15.76;100.00;100943.00;6102108;23;20333;-80
2022/09/13 03:51:52;;;;;;;18.05;13.82;;;;;;;15.39;100.00;100887.91;6127645;23;20056;-80
2022/09/13 03:54:31;;;;;;;19.77;14.23;;;;;;;15.73;100.00;100943.25;6127831;23;20033;-80
2022/09/13 03:57:13;;;;;;;17.92;13.35;;;;;;;15.71;100.00;100939.94;6127692;23;20002;-80
2022/09/13 03:59:50;;;;;;;18.45;13.75;;;;;;;15.68;100.00;100942.78;6128088;23;20049;-80
2022/09/13 04:02:18;;;;;;;21.15;14.73;;;;;;;15.49;100.00;100914.81;6127839;23;20006;-80
2022/09/13 04:04:47;;;;;;;19.17;14.30;;;;;;;15.67;100.00;100950.72;6127580;23;20412;-80
2022/09/13 04:07:18;;;;;;;18.63;13.95;;;;;;;15.61;100.00;100952.03;6127667;23;20495;-79
2022/09/13 04:09:44;;;;;;;19.90;14.32;;;;;;;15.56;100.00;100961.16;6127809;23;20006;-82
2022/09/13 04:12:10;;;;;;;17.63;13.35;;;;;;;15.55;100.00;100967.34;6127927;23;20010;-79
2022/09/13 04:14:36;;;;;;;18.63;14.43;;;;;;;15.19;100.00;100915.53;6127881;23;20413;-82
2022/09/13 04:17:02;;;;;;;17.27;14.10;;;;;;;15.33;100.00;100953.44;6127650;23;20026;-82
2022/09/13 04:19:27;;;;;;;17.05;13.63;;;;;;;15.19;100.00;100946.75;6127850;23;20393;-79
2022/09/13 04:21:54;;;;;;;18.80;14.43;;;;;;;15.31;100.00;100977.94;6126792;23;20009;-80
2022/09/13 04:24:23;;;;;;;18.80;13.18;;;;;;;15.30;100.00;100981.47;6127655;23;20372;-81
2022/09/13 04:26:50;;;;;;;20.52;13.88;;;;;;;15.25;100.00;100981.03;6127571;23;20009;-80
2022/09/13 04:29:17;;;;;;;17.30;13.55;;;;;;;15.24;100.00;100972.41;6127608;23;20009;-80
2022/09/13 04:31:42;;;;;;;18.15;12.63;;;;;;;15.28;100.00;100976.41;6127182;23;20038;-80
2022/09/13 04:34:08;;;;;;;18.95;13.45;;;;;;;15.23;100.00;100969.91;6127673;23;20018;-80
2022/09/13 04:36:33;;;;;;;18.42;13.32;;;;;;;15.25;100.00;100962.84;6127196;23;20037;-80
2022/09/13 04:38:59;;;;;;;18.48;13.60;;;;;;;15.25;100.00;100968.88;6127328;23;20010;-80
2022/09/13 04:41:25;;;;;;;18.08;13.95;;;;;;;15.28;100.00;100972.97;6101980;23;20012;-81
2022/09/13 04:43:50;;;;;;;19.50;13.48;;;;;;;15.32;100.00;100985.59;6127118;23;20014;-82
2022/09/13 04:46:16;;;;;;;16.95;12.95;;;;;;;15.34;100.00;100988.94;6100760;23;20059;-81
2022/09/13 04:48:42;;;;;;;21.95;13.38;;;;;;;15.34;100.00;100986.34;6127711;23;20010;-80
2022/09/13 04:51:07;;;;;;;18.08;13.18;;;;;;;15.01;100.00;100930.00;6127319;23;20487;-80
2022/09/13 04:53:33;;;;;;;17.27;13.80;;;;;;;15.21;100.00;100960.47;6127261;23;20006;-80
2022/09/13 04:56:02;;;;;;;18.30;13.23;;;;;;;15.24;100.00;100968.97;6127110;23;20065;-80
2022/09/13 04:58:28;;;;;;;17.25;12.90;;;;;;;15.22;100.00;100958.69;6127565;23;20345;-81
2022/09/13 05:00:59;;;;;;;19.52;13.27;;;;;;;15.42;100.00;100990.91;6127473;23;20009;-82
2022/09/13 05:03:24;;;;;;;18.20;12.75;;;;;;;15.35;100.00;100979.34;6127391;23;20009;-81
2022/09/13 05:05:49;;;;;;;16.05;12.18;;;;;;;15.36;100.00;100989.63;6127304;23;20002;-81
2022/09/13 05:08:15;;;;;;;15.75;12.48;;;;;;;15.42;100.00;100993.50;6127095;23;20332;-81
2022/09/13 05:10:40;;;;;;;17.55;12.80;;;;;;;15.44;100.00;100989.03;6127367;23;20006;-81
2022/09/13 05:13:05;;;;;;;20.42;14.32;;;;;;;15.45;100.00;100986.28;6127413;23;20006;-81
2022/09/13 05:15:31;;;;;;;18.05;13.27;;;;;;;15.48;100.00;100993.84;6126951;23;19998;-82
2022/09/13 05:17:56;;;;;;;19.50;13.82;;;;;;;15.49;100.00;101000.69;6127156;23;20002;-81
2022/09/13 05:20:21;;;;;;;18.95;13.23;;;;;;;15.53;100.00;100998.66;6127068;23;20002;-82
2022/09/13 05:22:46;;;;;;;17.90;12.57;;;;;;;15.51;100.00;100995.38;6126680;23;20005;-82
2022/09/13 05:25:12;;;;;;;18.10;13.05;;;;;;;15.58;100.00;101006.13;6126706;23;20006;-81
2022/09/13 05:27:38;;;;;;;19.17;12.65;;;;;;;15.57;100.00;101001.88;6100938;23;20014;-83
2022/09/13 05:30:04;;;;;;;17.35;12.77;;;;;;;15.57;100.00;101000.09;6126883;23;20030;-81
2022/09/13 05:32:30;;;;;;;19.70;13.73;;;;;;;15.52;100.00;100996.19;6126767;23;20021;-80
2022/09/13 05:34:56;;;;;;;17.77;13.88;;;;;;;15.40;100.00;100969.38;6126823;23;20045;-80
2022/09/13 05:37:22;;;;;;;18.38;13.82;;;;;;;15.20;100.00;100930.19;6126852;23;20002;-81
2022/09/13 05:39:47;;;;;;;19.10;13.98;;;;;;;15.64;100.00;101008.25;6126965;23;20013;-79
2022/09/13 05:42:12;;;;;;;17.20;13.90;;;;;;;15.65;100.00;100994.28;6126611;23;20001;-79
2022/09/13 05:44:38;;;;;;;19.95;13.18;;;;;;;15.73;100.00;101000.53;6125002;23;20014;-82
2022/09/13 05:47:04;;;;;;;19.63;13.88;;;;;;;15.78;100.00;101000.97;6127101;23;20009;-81
2022/09/13 05:49:29;;;;;;;18.35;12.85;;;;;;;15.72;100.00;100992.81;6126733;23;20416;-81
2022/09/13 05:51:55;;;;;;;18.50;13.07;;;;;;;15.84;100.00;101004.03;6126829;23;20009;-82
2022/09/13 05:54:20;;;;;;;18.70;13.20;;;;;;;15.85;100.00;101001.28;6126791;23;20002;-82
2022/09/13 05:56:45;;;;;;;18.88;13.93;;;;;;;15.88;100.00;101000.22;6126769;23;20002;-81
2022/09/13 05:59:12;;;;;;;19.40;13.52;;;;;;;15.92;100.00;101004.19;6126975;23;20012;-81
2022/09/13 06:01:37;;;;;;;19.27;14.10;;;;;;;15.94;100.00;100995.31;6100149;23;20108;-80
2022/09/13 06:04:03;;;;;;;18.55;13.50;;;;;;;15.84;100.00;100970.19;6126402;23;20360;-78
2022/09/13 06:06:28;;;;;;;17.30;13.35;;;;;;;15.93;100.00;100970.25;6099975;23;20037;-79
2022/09/13 06:08:55;;;;;;;21.42;15.35;;;;;;;16.13;100.00;100999.00;6126295;23;20006;-77
2022/09/13 06:11:22;;;;;;;20.27;15.02;;;;;;;16.14;100.00;100983.25;6126199;23;20006;-78
2022/09/13 06:13:47;;;;;;;25.27;15.65;;;;;;;16.26;100.00;100992.63;6126737;23;20010;-78
2022/09/13 06:16:14;;;;;;;21.40;15.02;;;;;;;16.34;100.00;100997.22;6126579;23;20002;-79
2022/09/13 06:18:40;;;;;;;19.75;14.75;;;;;;;16.47;100.00;100996.97;6099862;23;20092;-77
2022/09/13 06:21:08;;;;;;;20.42;16.00;;;;;;;16.59;99.62;101001.16;6126790;23;20115;-78
2022/09/13 06:23:34;;;;;;;19.60;15.15;;;;;;;16.52;97.74;100977.41;6126303;23;20336;-77
2022/09/13 06:26:00;;;;;;;20.27;14.40;;;;;;;16.76;96.63;101004.97;6126452;23;20002;-79
2022/09/13 06:28:26;;;;;;;19.73;14.15;;;;;;;16.84;97.36;101003.34;6126509;23;20098;-78
2022/09/13 06:30:51;;;;;;;20.05;15.15;;;;;;;16.94;97.11;101002.53;6126480;23;20042;-76
2022/09/13 06:33:16;;;;;;;21.50;14.85;;;;;;;16.96;95.50;100990.19;6126515;23;20352;-74
2022/09/13 06:35:42;;;;;;;18.38;14.02;;;;;;;17.01;96.40;100978.41;6099611;23;20009;-75
2022/09/13 06:38:07;;;;;;;18.73;14.80;;;;;;;17.21;95.72;100989.69;6126649;23;20010;-75
2022/09/13 06:40:32;;;;;;;18.00;15.18;;;;;;;17.29;95.88;100987.22;6125970;23;20006;-77
2022/09/13 06:42:58;;;;;;;18.98;14.75;;;;;;;17.38;95.27;100985.56;6126021;23;20013;-76
2022/09/13 06:45:23;;;;;;;18.15;13.93;;;;;;;17.13;95.36;100935.56;6126266;23;20010;-81
2022/09/13 06:47:48;;;;;;;20.08;13.93;;;;;;;17.54;95.39;100985.03;6126328;23;20006;-78
2022/09/13 06:50:14;;;;;;;21.15;14.20;;;;;;;17.43;95.75;100963.31;6126468;23;19998;-80
2022/09/13 06:52:39;;;;;;;19.25;14.50;;;;;;;17.43;96.63;100939.00;6126154;23;20064;-79
2022/09/13 06:55:05;;;;;;;17.98;13.30;;;;;;;18.82;92.14;100988.88;6126462;23;20014;-77
2022/09/13 06:57:30;;;;;;;17.77;14.60;;;;;;;20.27;82.07;100985.91;6126718;23;20081;-78
2022/09/13 06:59:55;;;;;;;20.70;14.85;;;;;;;21.36;75.65;100985.16;6126446;23;20010;-79
2022/09/13 07:02:21;;;;;;;19.92;16.08;;;;;;;21.69;70.74;100928.16;6126292;23;20006;-80
2022/09/13 07:04:46;;;;;;;18.40;14.38;;;;;;;21.80;69.63;100937.50;6126458;23;20006;-80
2022/09/13 07:07:11;;;;;;;18.63;15.15;;;;;;;21.77;69.46;100992.06;6126324;23;20006;-80
2022/09/13 07:09:37;;;;;;;20.10;16.13;;;;;;;21.18;70.66;100986.09;6126654;23;20010;-80
2022/09/13 07:12:04;;;;;;;23.85;16.67;;;;;;;20.51;73.14;100972.09;6126628;23;20002;-82
2022/09/13 07:14:30;;;;;;;26.85;17.92;;;;;;;20.31;74.79;101000.34;6126414;23;20017;-79
2022/09/13 07:16:55;;;;;;;21.77;17.27;;;;;;;19.88;76.87;100982.03;6126172;23;20080;-77
2022/09/13 07:19:23;;;;;;;25.33;18.48;;;;;;;19.81;77.30;100999.34;6126543;23;20421;-76
2022/09/13 07:21:49;;;;;;;25.23;18.90;;;;;;;19.39;78.15;100958.88;6126335;23;20324;-77
2022/09/13 07:24:16;;;;;;;21.15;17.30;;;;;;;19.58;78.85;100999.00;6099209;23;20014;-78
2022/09/13 07:26:41;;;;;;;26.25;18.70;;;;;;;19.52;79.38;101000.38;6126205;23;20006;-79
2022/09/13 07:29:09;;;;;;;25.80;18.33;;;;;;;19.43;79.44;101004.72;6125984;23;20369;-77
2022/09/13 07:31:37;;;;;;;25.13;18.77;;;;;;;19.25;80.68;100980.31;6125979;23;20444;-75
2022/09/13 07:34:05;;;;;;;25.40;18.60;;;;;;;19.42;80.84;101004.88;6126038;23;20424;-75
2022/09/13 07:36:33;;;;;;;26.30;19.80;;;;;;;19.37;80.24;101007.09;6126251;23;20014;-76
2022/09/13 07:38:58;;;;;;;26.98;21.20;;;;;;;19.44;80.75;101006.38;6126172;23;20010;-77
2022/09/13 07:41:26;;;;;;;26.55;20.60;;;;;;;19.57;81.27;101018.31;6125082;23;20358;-76
2022/09/13 07:43:51;;;;;;;26.65;21.10;;;;;;;19.66;80.13;101020.84;6124471;23;20425;-76
2022/09/13 07:46:22;;;;;;;26.65;20.45;;;;;;;19.79;80.08;101022.28;6126317;23;20037;-76
2022/09/13 07:48:50;;;;;;;14.30;10.95;;;;;;;20.01;80.13;101017.34;6126211;23;20085;-79
2022/09/13 07:51:19;;;;;;;24.92;19.48;;;;;;;20.09;79.88;101019.22;6126440;23;20032;-78
2022/09/13 07:53:47;;;;;;;16.80;13.48;;;;;;;20.31;79.27;101018.69;6126314;23;20015;-78
2022/09/13 07:56:14;;;;;;;15.93;13.27;;;;;;;20.46;78.50;101024.22;6126158;23;20328;-78
2022/09/13 07:58:42;;;;;;;20.90;17.08;;;;;;;20.62;77.87;101023.47;6127374;23;20002;-76
2022/09/13 08:01:15;;;;;;;20.65;15.82;;;;;;;20.68;78.95;101016.78;6127930;23;20009;-78
2022/09/13 08:03:41;;;;;;;24.17;18.38;;;;;;;20.87;78.05;101025.22;6127256;23;20006;-79
2022/09/13 08:06:07;;;;;;;22.63;17.58;;;;;;;20.81;78.29;101019.78;6127484;23;20002;-79
2022/09/13 08:08:34;;;;;;;24.88;18.90;;;;;;;20.89;78.00;101025.88;6127591;23;20052;-78
2022/09/13 08:11:00;;;;;;;33.33;24.92;;;;;;;20.90;77.63;101026.72;6127084;23;20455;-75
2022/09/13 08:13:27;;;;;;;31.02;24.05;;;;;;;20.98;78.82;101026.75;6127762;23;20009;-79
2022/09/13 08:15:53;;;;;;;27.75;19.98;;;;;;;20.95;79.95;101013.13;6127779;23;20006;-75
2022/09/13 08:18:19;;;;;;;25.08;17.48;;;;;;;21.07;79.59;101024.97;6127308;23;20486;-78
2022/09/13 08:20:44;;;;;;;31.10;23.38;;;;;;;20.99;78.63;101006.56;6127431;23;20056;-75
2022/09/13 08:23:11;;;;;;;25.17;18.40;;;;;;;21.10;78.74;101017.56;6127425;23;20025;-77
2022/09/13 08:25:37;;;;;;;30.33;22.83;;;;;;;21.17;77.53;101028.28;6127406;23;20002;-77
2022/09/13 08:28:14;;;;;;;28.83;22.45;;;;;;;21.10;77.92;101032.50;6101287;23;20029;-75
2022/09/13 08:30:42;;;;;;;28.40;20.73;;;;;;;21.20;78.11;101036.63;6126967;23;20014;-76
2022/09/13 08:33:08;;;;;;;30.00;22.35;;;;;;;21.32;77.90;101039.00;6127345;23;20387;-75
2022/09/13 08:35:34;;;;;;;30.67;23.25;;;;;;;21.36;77.65;101041.16;6101414;23;20036;-76
2022/09/13 08:37:59;;;;;;;33.45;25.63;;;;;;;21.36;77.72;101029.81;6127386;23;20073;-74
2022/09/13 08:40:30;;;;;;;36.90;23.80;;;;;;;21.48;78.21;101034.59;6127426;23;20515;-75
2022/09/13 08:43:17;;;;;;;35.78;27.45;;;;;;;21.59;78.83;101037.88;6127622;23;20017;-74
2022/09/13 08:45:59;;;;;;;33.38;24.33;;;;;;;21.61;77.43;101039.38;6127052;23;20077;-74
2022/09/13 08:48:32;;;;;;;30.10;22.02;;;;;;;21.69;77.15;101039.38;6127335;23;20013;-77
2022/09/13 08:51:03;;;;;;;37.63;27.45;;;;;;;21.77;76.19;101043.81;6127334;23;20033;-78
2022/09/13 08:53:30;;;;;;;33.58;26.27;;;;;;;21.74;75.49;101044.97;6126921;23;20010;-77
2022/09/13 08:56:04;;;;;;;34.03;25.45;;;;;;;21.77;76.02;101052.53;6127017;23;20002;-74
2022/09/13 08:58:45;;;;;;;28.00;21.20;;;;;;;21.76;75.90;101034.28;6127438;23;20329;-76
2022/09/13 09:01:13;;;;;;;;;;;;;;;22.03;77.33;101041.03;6127794;23;20006;-77
2022/09/13 09:04:05;;;;;;;37.78;23.75;;;;;;;21.89;75.55;101018.00;6127145;23;20308;-77
2022/09/13 09:06:32;;;;;;;;;;;;;;;22.14;77.00;101032.81;6127450;23;20006;-76
2022/09/13 09:09:04;;;;;;;32.10;24.17;;;;;;;22.03;74.57;101027.88;6127423;23;19909;-76
2022/09/13 09:11:36;;;;;;;30.50;23.23;;;;;;;22.07;75.24;101037.09;6126868;23;20009;-76
2022/09/13 09:14:18;;;;;;;28.17;21.73;;;;;;;22.00;75.17;101007.16;6100886;23;20141;-78
2022/09/13 09:17:05;;;;;;;30.92;21.60;;;;;;;22.23;74.95;101025.72;6126980;23;20022;-76
2022/09/13 09:19:39;;;;;;;32.40;19.80;;;;;;;22.24;73.82;101015.03;6126890;23;20325;-75
2022/09/13 09:22:12;;;;;;;33.13;24.77;;;;;;;22.28;74.18;101020.78;6127351;23;20297;-78
2022/09/13 09:24:39;;;;;;;32.63;24.98;;;;;;;22.25;73.57;101006.16;6127127;23;20297;-77
2022/09/13 09:27:14;;;;;;;31.65;21.92;;;;;;;;;;6126478;23;20010;-76
2022/09/13 09:29:43;;;;;;;26.20;18.27;;;;;;;22.53;75.11;101017.09;6126864;23;20013;-76
2022/09/13 09:32:26;;;;;;;21.85;14.43;;;;;;;22.51;73.91;101019.06;6126837;23;20466;-77
2022/09/13 09:35:00;;;;;;;18.90;14.32;;;;;;;22.55;73.35;101032.72;6126738;23;20491;-75
2022/09/13 09:37:28;;;;;;;22.48;17.13;;;;;;;22.36;72.25;101020.75;6126780;23;20005;-74
2022/09/13 09:40:03;;;;;;;25.60;19.30;;;;;;;22.22;72.87;101018.81;6126904;23;20073;-78
2022/09/13 09:42:41;;;;;;;25.17;18.35;;;;;;;22.05;73.80;101010.94;6126642;23;20001;-71
2022/09/13 09:45:27;;;;;;;28.15;19.17;;;;;;;22.18;74.58;101026.22;6126608;23;20010;-76
2022/09/13 09:47:55;;;;;;;24.70;18.88;;;;;;;22.24;74.90;101027.38;6126537;23;20340;-77
2022/09/13 09:50:26;;;;;;;26.90;19.85;;;;;;;22.30;74.82;101029.31;6126708;23;20008;-79
2022/09/13 09:53:01;;;;;;;27.88;20.40;;;;;;;22.41;74.70;101042.13;6126908;23;20006;-78
2022/09/13 09:55:30;;;;;;;28.13;20.33;;;;;;;22.43;73.98;101029.63;6126543;23;20006;-78
2022/09/13 09:58:03;;;;;;;26.85;19.00;;;;;;;22.47;72.95;101027.47;6126710;23;20013;-78
2022/09/13 10:00:31;;;;;;;22.95;18.40;;;;;;;22.52;73.28;101015.47;6126412;23;20072;-77
2022/09/13 10:03:01;;;;;;;22.13;16.30;;;;;;;22.68;73.90;101001.41;6100978;23;20006;-78
2022/09/13 10:05:29;;;;;;;23.67;15.77;;;;;;;23.06;72.41;101023.47;6126805;23;20016;-78
2022/09/13 10:08:01;;;;;;;24.60;16.65;;;;;;;23.30;70.55;101019.03;6126419;23;20454;-78
2022/09/13 10:10:34;;;;;;;21.83;15.93;;;;;;;23.61;70.95;101019.03;6126448;23;20002;-78
2022/09/13 10:15:35;;;;;;;16.55;13.20;;;;;;;23.96;67.44;101021.00;6096912;23;20022;-76
2022/09/13 10:18:05;;;;;;;15.40;10.65;;;;;;;23.98;67.88;101010.28;6097223;23;20078;-76
2022/09/13 10:20:32;;;;;;;12.88;9.70;;;;;;;24.06;69.06;101017.28;6097539;23;20088;-77
2022/09/13 10:23:13;;;;;;;14.82;9.57;;;;;;;24.17;69.96;101015.03;6097016;23;20011;-79
2022/09/13 10:25:39;;;;;;;15.80;11.27;;;;;;;24.07;68.00;101011.00;6097136;23;20007;-78
2022/09/13 10:28:12;;;;;;;16.08;11.00;;;;;;;23.92;68.07;101008.38;6097123;23;19998;-79
2022/09/13 10:31:00;;;;;;;13.70;10.25;;;;;;;23.87;68.84;100994.88;6097491;23;20329;-78
2022/09/13 10:33:30;;;;;;;13.45;9.65;;;;;;;23.90;68.26;101007.72;6076610;23;20042;-77
2022/09/13 10:36:01;;;;;;;14.50;10.03;;;;;;;23.69;66.61;101003.94;6097129;23;20009;-77
2022/09/13 10:38:39;;;;;;;14.10;9.20;;;;;;;23.83;67.70;101015.53;6096924;23;20282;-79
2022/09/13 10:41:10;;;;;;;12.32;8.77;;;;;;;23.95;66.27;101000.91;6097336;23;20492;-77
2022/09/13 10:43:36;;;;;;;14.25;9.85;;;;;;;24.09;65.84;100988.75;6096759;23;20081;-77
2022/09/13 10:46:05;;;;;;;13.15;9.77;;;;;;;24.37;64.66;100996.03;6097126;23;20003;-78
2022/09/13 10:48:44;;;;;;;11.23;8.35;;;;;;;24.45;66.10;100988.03;6071636;23;20002;-77
2022/09/13 10:51:24;;;;;;;13.23;9.23;;;;;;;24.47;65.92;101007.13;6097134;23;20003;-78
2022/09/13 10:53:50;;;;;;;14.00;8.93;;;;;;;24.24;65.73;100994.03;6096933;23;20077;-77
2022/09/13 10:56:21;;;;;;;15.05;11.65;;;;;;;24.11;66.18;101009.66;6097031;23;20010;-77
2022/09/13 10:58:46;;;;;;;13.05;9.73;;;;;;;24.04;68.37;101004.28;6096795;23;19999;-77
2022/09/13 11:01:47;;;;;;;13.48;10.25;;;;;;;23.83;68.72;101004.16;6097051;23;20333;-78
2022/09/13 11:04:56;;;;;;;14.27;10.65;;;;;;;23.68;68.82;100997.03;5980613;24;20019;-79
2022/09/13 11:07:29;;;;;;;13.90;8.85;;;;;;;23.65;68.76;100986.84;5897560;24;20009;-77
2022/09/13 11:10:03;;;;;;;13.85;9.30;;;;;;;23.79;67.88;100997.59;5897686;24;20127;-77
2022/09/13 11:13:14;;;;;;;10.88;8.32;;;;;;;23.98;67.84;100989.97;5897704;24;20372;-77
2022/09/13 11:15:46;;;;;;;;;;;;;;;24.15;67.89;100982.72;5844350;24;20403;-79
2022/09/13 11:18:38;;;;;;;10.65;7.32;;;;;;;23.90;66.73;100969.00;5843763;24;19916;-78
2022/09/13 11:21:19;;;;;;;9.57;7.38;;;;;;;24.12;66.12;100977.00;5843722;24;20017;-78
2022/09/13 11:24:01;;;;;;;11.10;7.00;;;;;;;24.03;66.60;100960.44;5843727;24;20018;-78
2022/09/13 11:26:42;;;;;;;12.52;9.38;;;;;;;24.20;66.17;100974.28;5843717;24;20038;-78